Notice: Undefined index: language in /home/u908952976/domains/airgaviota-va.com/public_html/vam/index.php on line 25
AirGaviota-VA

... VIRTUAL FLIGHT...OUR PASSION



 FLIGHT DETAILS
Pilot: GVT462 Peter Voksan Aircraft: 320NEO_JARDESIGN Distance: 867NM
Departure MHTG Arrival MUCU Duration 02:03
Validation Validated Type Regular Tail Number GV-AAC
ZFW 58903 Block Fuel/Initial FOB 5,238/0 Flight Fuel 4,841
Passengers 178 Cargo 281 Alternate MUHG
Departure Time Cruise Speed Flight Level 310
Flight Type IFR Aircraft Type A-320 Weight Unit Kg
Date 01-06-2020 Pilot Comments Network IVAO
Crashed No Validator Comments Flight Rating -620

 ROUTE
ROUTE MHTG SID BTO UR645 ROA UR644 GCM UG633 SIA UG629 RABAG STAR MUCU
REMARKS
 FLIGHT FAILURES
Crashed OK Beacon off & Engine Running Fail KIAS Above 250 below 10000 FT Fail
Lights OFF below 10000 FT Fail Lights ON above 10000 FT OK Stall OK
Overspeed OK Flight paused OK Refueling OK
Slew detected OK Taxi & Taxi lights off OK Take off & lights off OK
Landing & lights off Fail Landed in not planned airport OK Taxi Speed Fail
Wrong altimeter in Take off Fail Wrong altimeter in Landing OK
 LANDING ANALYSIS
Landing wind 354º/4 kt Landing heading 348
Landing VS: -222.23 ft/min Landing IAS: 131 kt
Landing Force G 1.3 G Landing Bank -0.4
Landing Pitch 7.3 Landing Flaps 40
Navigation Lights OFF Landing Lights OFF
Beacon Lights OFF Strobe Lights OFF
 FLIGHT MAP
 ALTITUDE CHART
 FLIGHT FINANCIAL REPORT
Cargo:281 .Price per Cargo Unit:140 39,340.00
Number of PAX:178 .Price per PAX:380 67,640.00
TOTAL 106,980.00
 MAIN EVENTS
DATE EVENTIASALTITUDE
2020-06-01 08:56:04 SIM ACARS version 1.4.103303
2020-06-01 08:56:04 BOARDING03303
2020-06-01 09:05:29 STARTING ENGINE 2 03303
2020-06-01 09:06:10 STARTING ENGINE 1 03303
2020-06-01 09:09:54 FLAPS EXTENSION 40 % 03303
2020-06-01 09:09:55 FLAPS EXTENSION 60 % 03303
2020-06-01 09:10:14 TAXI TO THE RWY 13303
2020-06-01 09:13:32 ROLLING FOR TAKE OFF523303
2020-06-01 09:14:02 TAKE OFF1553304
2020-06-01 09:14:06 GEAR UP1653345
2020-06-01 09:14:30 FLAPS EXTENSION 40 % 1784032
2020-06-01 09:15:03 FLAPS EXTENSION 0 % 1974845
2020-06-01 09:17:42 CRUISE2919884
2020-06-01 09:18:22 CLIMBING31610973
2020-06-01 09:30:52 CRUISE28630664
2020-06-01 10:53:21 DESCEND26530648
2020-06-01 11:05:51 CRUISE2508936
2020-06-01 11:10:41 DESCEND2498518
2020-06-01 11:11:43 STOPPING ENGINE 1 2517152
2020-06-01 11:11:44 STOPPING ENGINE 2 2517152
2020-06-01 11:11:44 LIGHTS OFF BELOW 10000 ft2517152
2020-06-01 11:11:49 IAS ABOVE 250 KNOTS BELOW 10000 ft2616728
2020-06-01 11:13:23 STARTING ENGINE 1 1855678
2020-06-01 11:13:23 BEACON LIGHT OFF & ENGINE ON1855678
2020-06-01 11:13:24 STOPPING ENGINE 1 1855662
2020-06-01 11:13:24 STARTING ENGINE 1 1855654
2020-06-01 11:13:24 STOPPING ENGINE 1 1865638
2020-06-01 11:13:25 STARTING ENGINE 1 1865629
2020-06-01 11:13:25 STOPPING ENGINE 1 1875613
2020-06-01 11:13:25 STARTING ENGINE 1 1875605
2020-06-01 11:13:26 STOPPING ENGINE 1 1875588
2020-06-01 11:13:26 STARTING ENGINE 1 1885578
2020-06-01 11:13:27 STOPPING ENGINE 1 1905525
2020-06-01 11:13:27 STARTING ENGINE 1 1905511
2020-06-01 11:13:28 STOPPING ENGINE 1 1925457
2020-06-01 11:13:28 STARTING ENGINE 1 1935442
2020-06-01 11:13:29 STOPPING ENGINE 1 1935423
2020-06-01 11:13:29 STARTING ENGINE 1 1945410
2020-06-01 11:13:29 STOPPING ENGINE 1 1955386
2020-06-01 11:13:30 STARTING ENGINE 1 1955369
2020-06-01 11:13:30 STOPPING ENGINE 1 1965345
2020-06-01 11:13:30 STARTING ENGINE 1 1975326
2020-06-01 11:13:31 STOPPING ENGINE 1 1995268
2020-06-01 11:13:32 STARTING ENGINE 1 2005244
2020-06-01 11:13:32 STOPPING ENGINE 1 2005230
2020-06-01 11:13:32 STARTING ENGINE 1 2015213
2020-06-01 11:13:33 STOPPING ENGINE 1 2035147
2020-06-01 11:13:33 STARTING ENGINE 1 2035136
2020-06-01 11:13:35 STOPPING ENGINE 1 2075024
2020-06-01 11:13:35 STARTING ENGINE 1 2085006
2020-06-01 11:13:37 STOPPING ENGINE 1 2124896
2020-06-01 11:13:37 STARTING ENGINE 1 2124884
2020-06-01 11:13:38 STOPPING ENGINE 1 2154807
2020-06-01 11:13:38 STARTING ENGINE 1 2154791
2020-06-01 11:13:38 STOPPING ENGINE 1 2164757
2020-06-01 11:13:39 STARTING ENGINE 1 2174743
2020-06-01 11:13:39 STOPPING ENGINE 1 2184714
2020-06-01 11:13:39 STARTING ENGINE 1 2184704
2020-06-01 11:13:40 STOPPING ENGINE 1 2214621
2020-06-01 11:13:40 STARTING ENGINE 1 2214606
2020-06-01 11:13:41 STOPPING ENGINE 1 2224576
2020-06-01 11:13:41 STARTING ENGINE 1 2234564
2020-06-01 11:13:41 STOPPING ENGINE 1 2244525
2020-06-01 11:13:42 STARTING ENGINE 1 2254511
2020-06-01 11:13:43 STOPPING ENGINE 1 2274435
2020-06-01 11:13:43 STARTING ENGINE 1 2274422
2020-06-01 11:13:44 STOPPING ENGINE 1 2304346
2020-06-01 11:13:44 STARTING ENGINE 1 2304332
2020-06-01 11:13:45 STOPPING ENGINE 1 2324260
2020-06-01 11:13:45 STARTING ENGINE 1 2334227
2020-06-01 11:13:46 STOPPING ENGINE 1 2334189
2020-06-01 11:13:46 STARTING ENGINE 1 2344177
2020-06-01 11:13:46 STOPPING ENGINE 1 2344158
2020-06-01 11:13:47 STARTING ENGINE 1 2344149
2020-06-01 11:13:48 STOPPING ENGINE 1 2344106
2020-06-01 11:13:48 STARTING ENGINE 1 2344100
2020-06-01 11:13:48 STOPPING ENGINE 1 2344088
2020-06-01 11:13:48 STARTING ENGINE 1 2344082
2020-06-01 11:13:50 STOPPING ENGINE 1 2324064
2020-06-01 11:13:50 STARTING ENGINE 1 2324064
2020-06-01 11:13:50 STOPPING ENGINE 1 2314065
2020-06-01 11:13:51 STARTING ENGINE 1 2314068
2020-06-01 11:13:52 STOPPING ENGINE 1 2294084
2020-06-01 11:13:52 STARTING ENGINE 1 2284091
2020-06-01 11:13:54 STOPPING ENGINE 1 2214184
2020-06-01 11:13:55 STARTING ENGINE 1 2204195
2020-06-01 11:13:55 STOPPING ENGINE 1 2194207
2020-06-01 11:13:55 STARTING ENGINE 1 2184218
2020-06-01 11:13:56 STOPPING ENGINE 1 2164256
2020-06-01 11:13:56 STARTING ENGINE 1 2154263
2020-06-01 11:13:57 STOPPING ENGINE 1 2124300
2020-06-01 11:13:57 STARTING ENGINE 1 2124305
2020-06-01 11:13:58 STOPPING ENGINE 1 2114320
2020-06-01 11:13:58 STARTING ENGINE 1 2104325
2020-06-01 11:14:00 STOPPING ENGINE 1 2064376
2020-06-01 11:14:00 STARTING ENGINE 1 2064380
2020-06-01 11:14:01 CLIMBING2044404
2020-06-01 11:14:03 STOPPING ENGINE 1 2004446
2020-06-01 11:14:03 STARTING ENGINE 1 2004449
2020-06-01 11:14:03 STOPPING ENGINE 1 1994455
2020-06-01 11:14:03 STARTING ENGINE 1 1994459
2020-06-01 11:14:04 STOPPING ENGINE 1 1984462
2020-06-01 11:14:04 STARTING ENGINE 1 1984464
2020-06-01 11:14:04 STOPPING ENGINE 1 1974469
2020-06-01 11:14:04 STARTING ENGINE 1 1974470
2020-06-01 11:14:06 STOPPING ENGINE 1 1954481
2020-06-01 11:14:06 STARTING ENGINE 1 1954481
2020-06-01 11:14:06 STOPPING ENGINE 1 1954483
2020-06-01 11:14:06 STARTING ENGINE 1 1944483
2020-06-01 11:14:17 STARTING ENGINE 2 1884395
2020-06-01 11:14:31 DESCEND1884174
2020-06-01 11:15:51 CRUISE2173274
2020-06-01 11:16:17 GEAR DOWN2073229
2020-06-01 11:16:18 FLAPS EXTENSION 40 % 2063233
2020-06-01 11:16:35 FLAPS EXTENSION 60 % 1803254
2020-06-01 11:16:52 FLAPS EXTENSION 80 % 1573119
2020-06-01 11:16:58 FLAPS EXTENSION 100 % 1523062
2020-06-01 11:17:01 DESCEND1493044
2020-06-01 11:20:29 LANDING WITH LANDING LIGHTS OFF131259
2020-06-01 11:20:29 LANDING131259
2020-06-01 11:20:54 FLAPS EXTENSION 80 % 38258
2020-06-01 11:20:55 FLAPS EXTENSION 60 % 37258
2020-06-01 11:20:55 FLAPS EXTENSION 40 % 37258
2020-06-01 11:20:55 FLAPS EXTENSION 0 % 36258
2020-06-01 11:20:59 TAXI TO THE GATE20258
2020-06-01 11:22:05 TAXI SPEED ABOVE 25 KTS25258
2020-06-01 11:23:30 STOPPING ENGINE 2 4258
2020-06-01 11:23:30 STOPPING ENGINE 1 4258
 ACARS DATA
DATE IASGSALTITUDEFUEL CONSUMED OATFLIGHT STATUS
2020-06-01 08:57:04003302110BOARDING
2020-06-01 08:58:04003302310BOARDING
2020-06-01 08:59:04003302410BOARDING
2020-06-01 09:00:04003302610BOARDING
2020-06-01 09:01:04003302810BOARDING
2020-06-01 09:02:040033021010BOARDING
2020-06-01 09:03:040033021110BOARDING
2020-06-01 09:04:040033021310BOARDING
2020-06-01 09:05:040033021510BOARDING
2020-06-01 09:06:040033022110BOARDING
2020-06-01 09:07:040033023710BOARDING
2020-06-01 09:08:040033025210BOARDING
2020-06-01 09:09:040033026710BOARDING
2020-06-01 09:10:040633028810BOARDING
2020-06-01 09:11:04313330211210TAXI TO THE RWY
2020-06-01 09:12:04818330213610TAXI TO THE RWY
2020-06-01 09:13:0480330215210TAXI TO THE RWY
2020-06-01 09:14:04160160331631110CLIMBING
2020-06-01 09:15:0419722548484597CLIMBING
2020-06-01 09:16:0424928665265653CLIMBING
2020-06-01 09:17:042493059282660-1CLIMBING
2020-06-01 09:18:0431938910046748-3CRUISE
2020-06-01 09:19:0431540412884835-9CLIMBING
2020-06-01 09:20:0431542015473917-14CLIMBING
2020-06-01 09:21:0431543317635990-18CLIMBING
2020-06-01 09:22:04315444194071058-22CLIMBING
2020-06-01 09:23:04315454209391122-25CLIMBING
2020-06-01 09:24:04315464224631185-28CLIMBING
2020-06-01 09:25:04315474239801248-31CLIMBING
2020-06-01 09:26:04315484254621310-34CLIMBING
2020-06-01 09:27:04311488269101369-37CLIMBING
2020-06-01 09:28:04301485284601425-40CLIMBING
2020-06-01 09:29:04293483297161476-43CLIMBING
2020-06-01 09:30:04283476306731522-45CLIMBING
2020-06-01 09:31:04286475306501564-45CRUISE
2020-06-01 09:32:04286475306561602-45CRUISE
2020-06-01 09:33:04286475306571641-45CRUISE
2020-06-01 09:34:04286475306571679-45CRUISE
2020-06-01 09:35:04286474306531717-45CRUISE
2020-06-01 09:36:04286461306561756-45CRUISE
2020-06-01 09:37:04286461306571795-45CRUISE
2020-06-01 09:38:04286460306571833-45CRUISE
2020-06-01 09:39:04286460306571872-45CRUISE
2020-06-01 09:40:04286460306551909-45CRUISE
2020-06-01 09:41:04286460306561947-45CRUISE
2020-06-01 09:42:04286460306561985-45CRUISE
2020-06-01 09:43:04286460306562024-45CRUISE
2020-06-01 09:44:04286460306562062-45CRUISE
2020-06-01 09:45:04286460306562101-45CRUISE
2020-06-01 09:46:04286460306562140-45CRUISE
2020-06-01 09:47:04286460306562178-45CRUISE
2020-06-01 09:48:04286460306562217-45CRUISE
2020-06-01 09:49:04286460306572254-45CRUISE
2020-06-01 09:50:04286460306572292-45CRUISE
2020-06-01 09:51:04286460306572330-45CRUISE
2020-06-01 09:52:04286460306572368-45CRUISE
2020-06-01 09:53:04286460306572406-45CRUISE
2020-06-01 09:54:04286460306572444-45CRUISE
2020-06-01 09:55:04286460306572482-45CRUISE
2020-06-01 09:56:04286459306572520-45CRUISE
2020-06-01 09:57:04286466306582558-45CRUISE
2020-06-01 09:58:04286466306572595-45CRUISE
2020-06-01 09:59:04286466306552634-45CRUISE
2020-06-01 10:00:04286466306562672-45CRUISE
2020-06-01 10:01:04286466306562711-45CRUISE
2020-06-01 10:02:04286466306562750-45CRUISE
2020-06-01 10:03:04286466306562788-45CRUISE
2020-06-01 10:04:04286466306562826-45CRUISE
2020-06-01 10:05:04286466306562864-45CRUISE
2020-06-01 10:06:04286466306572903-45CRUISE
2020-06-01 10:07:04286466306572940-45CRUISE
2020-06-01 10:08:04286465306572979-45CRUISE
2020-06-01 10:09:04286465306573016-45CRUISE
2020-06-01 10:10:04286465306573054-45CRUISE
2020-06-01 10:11:04286465306573092-45CRUISE
2020-06-01 10:12:04286465306563130-45CRUISE
2020-06-01 10:13:04286465306563168-45CRUISE
2020-06-01 10:14:04286465306563206-45CRUISE
2020-06-01 10:15:04286465306563245-45CRUISE
2020-06-01 10:16:04286465306563282-45CRUISE
2020-06-01 10:17:04286465306563320-45CRUISE
2020-06-01 10:18:04286465306573358-45CRUISE
2020-06-01 10:17:43286465306573396-45CRUISE
2020-06-01 10:18:43286465306573434-45CRUISE
2020-06-01 10:19:43286443306563473-45CRUISE
2020-06-01 10:20:43286442306563511-45CRUISE
2020-06-01 10:21:43286441306573549-45CRUISE
2020-06-01 10:22:43286441306573587-45CRUISE
2020-06-01 10:23:43286441306573623-45CRUISE
2020-06-01 10:24:43286441306573660-45CRUISE
2020-06-01 10:25:43286441306573697-45CRUISE
2020-06-01 10:26:43286441306563735-45CRUISE
2020-06-01 10:27:43286441306563773-45CRUISE
2020-06-01 10:28:43286441306563811-45CRUISE
2020-06-01 10:29:43286441306563848-45CRUISE
2020-06-01 10:30:43286441306563886-45CRUISE
2020-06-01 10:31:43286441306563924-45CRUISE
2020-06-01 10:32:43286441306563962-45CRUISE
2020-06-01 10:33:43286441306563999-45CRUISE
2020-06-01 10:34:43286441306564037-45CRUISE
2020-06-01 10:35:43286441306564075-45CRUISE
2020-06-01 10:36:43286441306564113-45CRUISE
2020-06-01 10:37:43286441306564151-45CRUISE
2020-06-01 10:38:43286441306564188-45CRUISE
2020-06-01 10:39:43285440310374229-46CRUISE
2020-06-01 10:40:43285440310334267-46CRUISE
2020-06-01 10:41:43285440310324304-46CRUISE
2020-06-01 10:42:43285440310324341-46CRUISE
2020-06-01 10:43:43285440310334378-46CRUISE
2020-06-01 10:44:43285440310324416-46CRUISE
2020-06-01 10:45:43285440310334454-46CRUISE
2020-06-01 10:46:43285429310424492-46CRUISE
2020-06-01 10:47:43285424310334530-46CRUISE
2020-06-01 10:48:43285424310334567-46CRUISE
2020-06-01 10:49:43285424310334604-46CRUISE
2020-06-01 10:50:43285424310324641-46CRUISE
2020-06-01 10:51:43285424310324679-46CRUISE
2020-06-01 10:52:43285424310324716-46CRUISE
2020-06-01 10:53:43268390296494720-43DESCEND
2020-06-01 10:54:43267376274274722-39DESCEND
2020-06-01 10:55:43267365252444725-34DESCEND
2020-06-01 10:56:43267354231324728-30DESCEND
2020-06-01 10:57:43267345211144732-26DESCEND
2020-06-01 10:58:43267341191294736-22DESCEND
2020-06-01 10:59:43267334173054741-19DESCEND
2020-06-01 11:00:43267327155674746-15DESCEND
2020-06-01 11:01:43268327137194752-10DESCEND
2020-06-01 11:02:43267321121364758-5DESCEND
2020-06-01 11:03:432673151055247640DESCEND
2020-06-01 11:04:43249289964547701DESCEND
2020-06-01 11:05:43250286893447903DESCEND
2020-06-01 11:06:43249286893648223CRUISE
2020-06-01 11:07:43250287892748553CRUISE
2020-06-01 11:08:43250286893648873CRUISE
2020-06-01 11:09:43249286893649203CRUISE
2020-06-01 11:10:43249284846149444DESCEND
2020-06-01 11:11:43250276716149507DESCEND
2020-06-01 11:12:432322545648495010DESCEND
2020-06-01 11:13:432272434409495013DESCEND
2020-06-01 11:14:431942073895495714DESCEND
2020-06-01 11:15:432192313280498615DESCEND
2020-06-01 11:16:431691803209500315CRUISE
2020-06-01 11:17:431381482591503916DESCEND
2020-06-01 11:18:431411501875508818DESCEND
2020-06-01 11:19:43138143708511620DESCEND
2020-06-01 11:20:438385257516122LANDED
2020-06-01 11:21:4302257518522TAXI TO THE GATE
2020-06-01 11:22:432321257522622TAXI TO THE GATE
2020-06-01 11:23:4330257523822TAXI TO THE GATE